createdAt,value
2018-05-18T00:01:39.845Z,95.15
2018-05-18T00:04:08.249Z,91.47
2018-05-18T00:06:37.545Z,102.32
2018-05-18T00:09:06.713Z,87.03
2018-05-18T00:11:35.276Z,88.00
2018-05-18T00:14:03.916Z,87.18
2018-05-18T00:16:32.449Z,95.93
2018-05-18T00:19:00.920Z,95.97
2018-05-18T00:21:29.354Z,88.82
2018-05-18T00:23:58.515Z,79.25
2018-05-18T00:26:27.033Z,84.80
2018-05-18T00:28:56.238Z,89.75
2018-05-18T00:31:24.861Z,94.07
2018-05-18T00:33:53.338Z,94.25
2018-05-18T00:36:21.762Z,91.53
2018-05-18T00:38:50.213Z,85.43
2018-05-18T00:41:18.645Z,81.87
2018-05-18T00:43:47.089Z,91.87
2018-05-18T00:46:15.677Z,86.40
2018-05-18T00:48:44.465Z,90.90
2018-05-18T00:51:12.870Z,82.50
2018-05-18T00:53:41.270Z,95.12
2018-05-18T00:56:09.670Z,78.57
2018-05-18T00:58:38.181Z,72.53
2018-05-18T01:01:07.340Z,84.05
2018-05-18T01:03:35.717Z,92.07
2018-05-18T01:06:04.299Z,78.75
2018-05-18T01:08:32.678Z,91.60
2018-05-18T01:11:01.057Z,99.03
2018-05-18T01:13:29.452Z,66.93
2018-05-18T01:15:57.914Z,69.15
2018-05-18T01:18:26.245Z,76.30
2018-05-18T01:20:55.385Z,82.07
2018-05-18T01:23:23.808Z,81.30
2018-05-18T01:25:52.192Z,86.32
2018-05-18T01:28:20.561Z,79.68
2018-05-18T01:30:48.962Z,96.32
2018-05-18T01:33:17.349Z,75.05
2018-05-18T01:35:45.749Z,75.75
2018-05-18T01:38:14.133Z,80.03
2018-05-18T01:40:42.560Z,87.32
2018-05-18T01:43:10.944Z,68.85
2018-05-18T01:45:40.095Z,75.90
2018-05-18T01:48:08.493Z,81.85
2018-05-18T01:50:36.947Z,84.07
2018-05-18T01:53:05.349Z,72.30
2018-05-18T01:55:33.725Z,88.40
2018-05-18T01:58:02.617Z,80.85
2018-05-18T02:00:30.993Z,74.18
2018-05-18T02:02:59.381Z,68.57
2018-05-18T02:05:27.783Z,87.57
2018-05-18T02:07:56.920Z,81.82
2018-05-18T02:10:25.322Z,86.47
2018-05-18T02:12:53.699Z,80.60
2018-05-18T02:15:22.100Z,70.87
2018-05-18T02:17:50.472Z,69.85
2018-05-18T02:20:18.850Z,80.30
2018-05-18T02:22:47.256Z,67.72
2018-05-18T02:25:16.405Z,88.20
2018-05-18T02:27:44.943Z,70.18
2018-05-18T02:30:14.097Z,87.47
2018-05-18T02:32:42.654Z,70.87
2018-05-18T02:35:11.039Z,73.55
2018-05-18T02:37:39.418Z,82.75
2018-05-18T02:40:07.836Z,68.72
2018-05-18T02:42:36.221Z,74.70
2018-05-18T02:45:05.388Z,76.50
2018-05-18T02:47:33.769Z,67.50
2018-05-18T02:50:02.539Z,75.55
2018-05-18T02:52:31.012Z,92.12
2018-05-18T02:54:59.301Z,89.32
2018-05-18T02:57:27.707Z,82.07
2018-05-18T02:59:56.084Z,71.65
2018-05-18T03:02:24.489Z,75.55
2018-05-18T03:04:53.637Z,79.57
2018-05-18T03:07:22.306Z,75.45
2018-05-18T03:09:50.676Z,66.37
2018-05-18T03:12:19.053Z,77.00
2018-05-18T03:14:47.465Z,82.25
2018-05-18T03:17:15.844Z,88.25
2018-05-18T03:19:44.248Z,82.35
2018-05-18T03:22:12.624Z,72.07
2018-05-18T03:24:41.470Z,81.25
2018-05-18T03:27:09.847Z,74.15
2018-05-18T03:29:38.229Z,78.32
2018-05-18T03:32:06.629Z,90.03
2018-05-18T03:34:35.008Z,73.97
2018-05-18T03:37:03.418Z,87.03
2018-05-18T03:39:32.562Z,74.12
2018-05-18T03:42:00.977Z,86.37
2018-05-18T03:44:29.349Z,88.87
2018-05-18T03:46:57.741Z,86.78
2018-05-18T03:49:26.149Z,84.15
2018-05-18T03:51:54.934Z,74.80
2018-05-18T03:54:23.329Z,85.30
2018-05-18T03:56:51.710Z,77.20
2018-05-18T03:59:20.138Z,88.78
2018-05-18T04:02:06.440Z,85.30
2018-05-18T04:04:52.832Z,78.45
2018-05-18T04:07:38.913Z,85.65
2018-05-18T04:10:07.473Z,82.15
2018-05-18T04:12:35.845Z,89.22
2018-05-18T04:15:04.236Z,83.93
2018-05-18T04:17:32.640Z,89.03
2018-05-18T04:20:01.013Z,90.50
2018-05-18T04:22:29.477Z,89.50
2018-05-18T04:24:57.889Z,87.00
2018-05-18T04:27:26.592Z,99.45
2018-05-18T04:29:55.739Z,85.47
2018-05-18T04:32:24.132Z,88.97
2018-05-18T04:34:52.531Z,92.65
2018-05-18T04:37:21.113Z,89.18
2018-05-18T04:39:49.513Z,87.32
2018-05-18T04:42:18.689Z,87.07
2018-05-18T04:44:47.112Z,86.53
2018-05-18T04:47:15.485Z,94.18
2018-05-18T04:49:43.888Z,88.65
2018-05-18T04:52:13.033Z,96.50
2018-05-18T04:54:42.181Z,92.70
2018-05-18T04:57:10.582Z,77.72
2018-05-18T04:59:38.960Z,84.97
2018-05-18T05:02:07.364Z,102.45
2018-05-18T05:04:36.511Z,80.57
2018-05-18T05:07:04.912Z,88.68
2018-05-18T05:09:33.317Z,82.10
2018-05-18T05:12:02.457Z,85.82
2018-05-18T05:14:30.861Z,87.25
2018-05-18T05:16:59.237Z,83.15
2018-05-18T05:19:27.643Z,98.80
2018-05-18T05:21:56.017Z,77.25
2018-05-18T05:24:24.426Z,83.22
2018-05-18T05:26:52.932Z,91.20
2018-05-18T05:29:21.309Z,83.43
2018-05-18T05:31:49.720Z,85.45
2018-05-18T05:34:18.095Z,69.22
2018-05-18T05:36:46.539Z,74.53
2018-05-18T05:39:14.908Z,67.45
2018-05-18T05:41:43.824Z,77.03
2018-05-18T05:44:12.197Z,85.50
2018-05-18T05:46:40.568Z,83.95
2018-05-18T05:49:08.964Z,68.93
2018-05-18T05:51:37.357Z,66.87
2018-05-18T05:54:05.776Z,74.87
2018-05-18T05:56:34.964Z,94.10
2018-05-18T05:59:04.304Z,80.38
2018-05-18T06:01:32.681Z,70.00
2018-05-18T06:04:01.061Z,68.28
2018-05-18T06:06:29.590Z,75.97
2018-05-18T06:08:58.069Z,76.05
2018-05-18T06:11:26.469Z,73.10
2018-05-18T06:13:55.620Z,70.70
2018-05-18T06:16:24.290Z,69.87
2018-05-18T06:18:52.880Z,77.30
2018-05-18T06:21:21.253Z,77.78
2018-05-18T06:23:49.834Z,75.40
2018-05-18T06:26:18.226Z,66.20
2018-05-18T06:28:46.716Z,63.80
2018-05-18T06:31:15.800Z,64.25
2018-05-18T06:33:44.472Z,63.17
2018-05-18T06:36:12.849Z,78.07
2018-05-18T06:38:41.222Z,67.68
2018-05-18T06:41:09.633Z,62.28
2018-05-18T06:43:38.020Z,56.15
2018-05-18T06:46:06.425Z,59.42
2018-05-18T06:48:35.568Z,60.70
2018-05-18T06:51:04.146Z,61.37
2018-05-18T06:53:32.525Z,63.97
2018-05-18T06:56:00.904Z,65.35
2018-05-18T06:58:29.315Z,65.57
2018-05-18T07:00:58.461Z,64.20
2018-05-18T07:03:26.857Z,68.47
2018-05-18T07:05:55.278Z,60.63
2018-05-18T07:08:24.741Z,65.80
2018-05-18T07:10:53.153Z,51.25
2018-05-18T07:13:21.533Z,72.97
2018-05-18T07:15:49.942Z,55.70
2018-05-18T07:18:18.360Z,61.90
2018-05-18T07:20:46.768Z,53.13
2018-05-18T07:23:15.156Z,63.47
2018-05-18T07:25:44.508Z,62.72
2018-05-18T07:28:12.888Z,51.45
2018-05-18T07:30:41.268Z,60.20
2018-05-18T07:33:09.686Z,56.75
2018-05-18T07:35:38.069Z,45.38
2018-05-18T07:38:07.280Z,47.67
2018-05-18T07:40:36.496Z,55.72
2018-05-18T07:43:05.044Z,49.27
2018-05-18T07:45:33.428Z,50.93
2018-05-18T07:48:02.644Z,55.75
2018-05-18T07:50:31.061Z,53.57
2018-05-18T07:52:59.449Z,56.78
2018-05-18T07:55:27.857Z,46.15
2018-05-18T07:57:57.130Z,40.67
2018-05-18T08:00:25.698Z,40.95
2018-05-18T08:02:54.087Z,42.27
2018-05-18T08:05:22.469Z,53.97
2018-05-18T08:07:50.925Z,47.73
2018-05-18T08:10:20.087Z,53.83
2018-05-18T08:12:49.276Z,52.50
2018-05-18T08:15:17.659Z,42.50
2018-05-18T08:17:46.938Z,45.33
2018-05-18T08:20:15.328Z,45.23
2018-05-18T08:22:43.717Z,59.13
2018-05-18T08:25:12.890Z,49.63
2018-05-18T08:27:41.393Z,41.80
2018-05-18T08:30:09.721Z,42.77
2018-05-18T08:32:38.106Z,44.10
2018-05-18T08:35:06.533Z,40.30
2018-05-18T08:37:35.684Z,44.10
2018-05-18T08:40:04.077Z,57.87
2018-05-18T08:42:32.480Z,40.97
2018-05-18T08:45:01.638Z,42.37
2018-05-18T08:47:30.168Z,43.40
2018-05-18T08:49:59.316Z,61.23
2018-05-18T08:52:27.708Z,42.07
2018-05-18T08:54:56.117Z,46.10
2018-05-18T08:57:25.260Z,39.67
2018-05-18T08:59:53.863Z,34.30
2018-05-18T09:02:22.274Z,36.07
2018-05-18T09:04:50.799Z,26.87
2018-05-18T09:07:19.213Z,42.67
2018-05-18T09:09:47.588Z,30.17
2018-05-18T09:12:16.104Z,31.93
2018-05-18T09:14:45.244Z,49.80
2018-05-18T09:17:13.619Z,29.50
2018-05-18T09:19:42.036Z,28.83
2018-05-18T09:22:10.413Z,35.60
2018-05-18T09:24:39.251Z,31.27
2018-05-18T09:27:07.629Z,29.03
2018-05-18T09:29:36.000Z,48.33
2018-05-18T09:32:04.409Z,36.37
2018-05-18T09:34:32.781Z,29.17
2018-05-18T09:37:01.719Z,24.47
2018-05-18T09:39:30.104Z,36.30
2018-05-18T09:41:59.244Z,26.80
2018-05-18T09:44:27.645Z,28.20
2018-05-18T09:46:56.020Z,30.83
2018-05-18T09:49:24.437Z,31.00
2018-05-18T09:51:53.582Z,33.90
2018-05-18T09:54:22.478Z,21.40
2018-05-18T09:56:50.851Z,34.03
2018-05-18T09:59:19.806Z,31.43
2018-05-18T10:01:48.320Z,30.90
2018-05-18T10:04:16.701Z,47.07
2018-05-18T10:06:45.083Z,28.63
2018-05-18T10:09:13.493Z,30.17
2018-05-18T10:11:41.871Z,27.40
2018-05-18T10:14:10.297Z,27.40
2018-05-18T10:16:38.677Z,22.53
2018-05-18T10:19:07.056Z,26.30
2018-05-18T10:21:35.457Z,30.03
2018-05-18T10:24:03.833Z,25.50
2018-05-18T10:26:32.223Z,25.77
2018-05-18T10:29:00.600Z,38.13
2018-05-18T10:31:29.034Z,27.43
2018-05-18T10:33:57.408Z,27.30
2018-05-18T10:36:26.561Z,21.70
2018-05-18T10:38:54.957Z,23.07
2018-05-18T10:41:23.355Z,19.70
2018-05-18T10:43:52.556Z,16.37
2018-05-18T10:46:21.697Z,17.30
2018-05-18T10:48:50.279Z,24.60
2018-05-18T10:51:18.665Z,27.70
2018-05-18T10:53:47.061Z,21.43
2018-05-18T10:56:15.468Z,22.17
2018-05-18T10:58:44.606Z,25.30
2018-05-18T11:01:13.001Z,28.60
2018-05-18T11:03:41.377Z,29.13
2018-05-18T11:06:09.956Z,29.50
2018-05-18T11:08:38.368Z,21.70
2018-05-18T11:11:07.518Z,19.07
2018-05-18T11:13:35.909Z,22.57
2018-05-18T11:16:04.293Z,23.60
2018-05-18T11:18:32.692Z,25.83
2018-05-18T11:21:01.070Z,22.97
2018-05-18T11:23:29.721Z,21.40
2018-05-18T11:25:58.105Z,19.23
2018-05-18T11:28:26.476Z,21.50
2018-05-18T11:30:54.875Z,13.87
2018-05-18T11:33:23.248Z,19.40
2018-05-18T11:35:51.647Z,17.63
2018-05-18T11:38:20.159Z,20.33
2018-05-18T11:40:49.325Z,17.40
2018-05-18T11:43:17.699Z,21.50
2018-05-18T11:45:46.272Z,13.90
2018-05-18T11:48:14.652Z,24.03
2018-05-18T11:50:43.025Z,22.87
2018-05-18T11:53:11.439Z,28.20
2018-05-18T11:55:40.583Z,22.30
2018-05-18T11:58:08.985Z,16.77
2018-05-18T12:00:37.358Z,19.97
2018-05-18T12:03:05.768Z,18.70
2018-05-18T12:05:34.145Z,16.40
2018-05-18T12:08:02.517Z,12.23
2018-05-18T12:10:30.927Z,19.37
2018-05-18T12:12:59.752Z,24.43
2018-05-18T12:15:28.157Z,17.10
2018-05-18T12:17:56.529Z,15.77
2018-05-18T12:20:24.922Z,18.00
2018-05-18T12:22:53.325Z,15.40
2018-05-18T12:25:22.465Z,21.47
2018-05-18T12:27:51.040Z,20.10
2018-05-18T12:30:19.411Z,19.33
2018-05-18T12:32:47.787Z,24.73
2018-05-18T12:35:16.181Z,33.53
2018-05-18T12:37:44.575Z,26.40
2018-05-18T12:40:13.138Z,30.80
2018-05-18T12:42:41.512Z,24.37
2018-05-18T12:45:09.897Z,26.30
2018-05-18T12:47:38.315Z,20.10
2018-05-18T12:50:06.689Z,28.53
2018-05-18T12:52:35.331Z,20.33
2018-05-18T12:55:03.725Z,17.07
2018-05-18T12:57:32.109Z,17.43
2018-05-18T13:00:00.514Z,20.00
2018-05-18T13:02:28.896Z,19.63
2018-05-18T13:04:57.438Z,22.43
2018-05-18T13:07:25.821Z,19.97
2018-05-18T13:09:54.201Z,16.50
2018-05-18T13:12:23.063Z,16.80
2018-05-18T13:14:51.434Z,18.63
2018-05-18T13:17:21.105Z,20.67
2018-05-18T13:19:49.480Z,20.03
2018-05-18T13:22:17.864Z,19.67
2018-05-18T13:24:46.262Z,13.77
2018-05-18T13:27:15.404Z,16.07
2018-05-18T13:29:43.986Z,13.97
2018-05-18T13:32:14.333Z,13.87
2018-05-18T13:34:42.798Z,17.90
2018-05-18T13:37:11.214Z,14.10
2018-05-18T13:39:40.377Z,14.40
2018-05-18T13:42:08.792Z,13.57
2018-05-18T13:44:37.937Z,12.83
2018-05-18T13:47:06.363Z,12.67
2018-05-18T13:49:35.726Z,13.20
2018-05-18T13:52:04.205Z,15.63
2018-05-18T13:54:32.776Z,13.97
2018-05-18T13:57:01.156Z,17.90
2018-05-18T13:59:29.544Z,19.67
2018-05-18T14:01:57.945Z,18.70
2018-05-18T14:04:26.326Z,20.13
2018-05-18T14:06:54.882Z,17.13
2018-05-18T14:09:23.269Z,17.60
2018-05-18T14:11:51.640Z,16.33
2018-05-18T14:14:20.181Z,11.60
2018-05-18T14:16:48.562Z,19.63
2018-05-18T14:19:16.967Z,24.17
2018-05-18T14:21:45.365Z,18.40
2018-05-18T14:24:13.741Z,16.97
2018-05-18T14:26:42.140Z,13.60
2018-05-18T14:29:10.537Z,17.13
2018-05-18T14:31:40.330Z,22.60
2018-05-18T14:34:08.706Z,23.27
2018-05-18T14:36:37.100Z,30.13
2018-05-18T14:39:07.064Z,16.37
2018-05-18T14:41:35.451Z,17.97
2018-05-18T14:44:04.206Z,22.27
2018-05-18T14:46:32.721Z,28.43
2018-05-18T14:49:01.150Z,15.83
2018-05-18T14:51:30.318Z,19.20
2018-05-18T14:53:58.874Z,32.40
2018-05-18T14:56:27.781Z,40.47
2018-05-18T14:58:56.162Z,40.53
2018-05-18T15:01:24.575Z,23.40
2018-05-18T15:03:53.038Z,23.40
2018-05-18T15:06:21.450Z,18.97
2018-05-18T15:08:50.799Z,27.40
2018-05-18T15:11:19.229Z,22.93
2018-05-18T15:13:48.372Z,13.60
2018-05-18T15:16:16.843Z,15.17
2018-05-18T15:18:45.932Z,15.63
2018-05-18T15:21:14.834Z,13.47
2018-05-18T15:23:43.206Z,16.13
2018-05-18T15:26:11.579Z,16.10
2018-05-18T15:28:40.012Z,24.17
2018-05-18T15:31:09.154Z,15.33
2018-05-18T15:33:38.007Z,27.20
2018-05-18T15:36:07.143Z,21.80
2018-05-18T15:38:35.543Z,16.80
2018-05-18T15:41:03.938Z,24.43
2018-05-18T15:43:33.830Z,14.30
2018-05-18T15:46:02.501Z,26.67
2018-05-18T15:48:30.865Z,28.47
2018-05-18T15:50:59.240Z,18.83
2018-05-18T15:53:27.680Z,19.43
2018-05-18T15:55:56.123Z,15.97
2018-05-18T15:58:25.010Z,22.10
2018-05-18T16:00:53.376Z,17.60
2018-05-18T16:03:21.816Z,27.37
2018-05-18T16:05:51.001Z,16.93
2018-05-18T16:08:19.377Z,18.97
2018-05-18T16:10:47.790Z,27.33
2018-05-18T16:13:16.160Z,27.73
2018-05-18T16:15:45.300Z,13.53
2018-05-18T16:18:13.705Z,22.30
2018-05-18T16:20:42.843Z,22.30
2018-05-18T16:23:11.300Z,16.53
2018-05-18T16:25:40.517Z,13.63
2018-05-18T16:28:09.726Z,17.50
2018-05-18T16:30:38.129Z,20.10
2018-05-18T16:33:06.505Z,15.00
2018-05-18T16:35:35.075Z,18.10
2018-05-18T16:38:03.845Z,11.90
2018-05-18T16:40:37.749Z,19.57
2018-05-18T16:43:09.506Z,11.83
2018-05-18T16:45:38.816Z,17.53
2018-05-18T16:48:07.222Z,28.97
2018-05-18T16:50:35.594Z,23.07
2018-05-18T16:53:03.996Z,16.27
2018-05-18T16:55:32.374Z,24.90
2018-05-18T16:58:00.775Z,20.07
2018-05-18T17:00:29.156Z,14.13
2018-05-18T17:02:57.892Z,27.77
2018-05-18T17:05:26.272Z,30.87
2018-05-18T17:07:54.657Z,22.53
2018-05-18T17:10:23.060Z,25.63
2018-05-18T17:12:51.456Z,20.20
2018-05-18T17:15:20.624Z,29.90
2018-05-18T17:17:49.008Z,24.03
2018-05-18T17:20:17.676Z,19.17
2018-05-18T17:22:46.053Z,14.57
2018-05-18T17:25:15.105Z,25.93
2018-05-18T17:27:45.575Z,26.13
2018-05-18T17:30:13.975Z,16.50
2018-05-18T17:32:43.293Z,23.67
2018-05-18T17:35:12.440Z,18.83
2018-05-18T17:37:41.029Z,19.00
2018-05-18T17:40:09.432Z,25.67
2018-05-18T17:42:37.908Z,19.23
2018-05-18T17:45:06.376Z,23.40
2018-05-18T17:47:34.820Z,22.07
2018-05-18T17:50:03.338Z,14.83
2018-05-18T17:52:32.596Z,21.57
2018-05-18T17:55:01.269Z,19.00
2018-05-18T17:57:30.433Z,15.77
2018-05-18T17:59:58.957Z,28.03
2018-05-18T18:02:27.354Z,20.37
2018-05-18T18:04:55.773Z,27.17
2018-05-18T18:07:24.180Z,23.13
2018-05-18T18:09:53.419Z,22.77
2018-05-18T18:12:21.916Z,17.50
2018-05-18T18:14:50.289Z,22.03
2018-05-18T18:17:18.825Z,25.20
2018-05-18T18:19:48.002Z,28.30
2018-05-18T18:22:16.393Z,14.90
2018-05-18T18:24:45.689Z,24.10
2018-05-18T18:27:14.071Z,21.53
2018-05-18T18:29:43.265Z,28.13
2018-05-18T18:32:11.762Z,25.90
2018-05-18T18:34:40.965Z,17.67
2018-05-18T18:37:09.605Z,27.47
2018-05-18T18:39:37.988Z,27.80
2018-05-18T18:42:06.395Z,22.60
2018-05-18T18:44:35.606Z,26.57
2018-05-18T18:47:04.216Z,24.03
2018-05-18T18:49:32.640Z,18.93
2018-05-18T18:52:01.248Z,34.13
2018-05-18T18:54:29.822Z,23.87
2018-05-18T18:56:59.052Z,22.77
2018-05-18T18:59:28.172Z,17.60
2018-05-18T19:01:56.777Z,23.02
2018-05-18T19:04:25.286Z,19.63
2018-05-18T19:06:54.512Z,26.83
2018-05-18T19:09:23.452Z,35.40
2018-05-18T19:11:52.917Z,20.73
2018-05-18T19:14:21.350Z,16.90
2018-05-18T19:16:49.792Z,24.20
2018-05-18T19:19:18.433Z,22.27
2018-05-18T19:21:47.039Z,21.33
2018-05-18T19:24:15.537Z,19.10
2018-05-18T19:26:43.972Z,30.98
2018-05-18T19:29:12.592Z,20.42
2018-05-18T19:31:41.113Z,20.80
2018-05-18T19:34:10.483Z,25.00
2018-05-18T19:36:39.002Z,29.75
2018-05-18T19:39:07.751Z,16.52
2018-05-18T19:41:36.217Z,19.50
2018-05-18T19:44:04.693Z,26.85
2018-05-18T19:46:33.705Z,36.70
2018-05-18T19:49:02.377Z,32.78
2018-05-18T19:51:30.811Z,24.37
2018-05-18T19:54:00.067Z,26.12
2018-05-18T19:56:28.660Z,31.75
2018-05-18T19:58:57.049Z,28.25
2018-05-18T20:01:25.511Z,30.77
2018-05-18T20:03:53.989Z,26.95
2018-05-18T20:06:22.908Z,32.15
2018-05-18T20:08:52.571Z,27.15
2018-05-18T20:11:20.992Z,31.23
2018-05-18T20:13:50.526Z,28.35
2018-05-18T20:16:19.518Z,23.65
2018-05-18T20:18:49.316Z,35.78
2018-05-18T20:21:19.317Z,29.35
2018-05-18T20:23:49.947Z,36.42
2018-05-18T20:26:19.429Z,27.15
2018-05-18T20:28:48.016Z,27.92
2018-05-18T20:31:16.433Z,24.33
2018-05-18T20:33:45.629Z,27.75
2018-05-18T20:36:14.106Z,26.20
2018-05-18T20:38:43.473Z,38.75
2018-05-18T20:41:12.968Z,35.05
2018-05-18T20:43:42.585Z,32.10
2018-05-18T20:46:12.192Z,40.40
2018-05-18T20:48:41.397Z,27.60
2018-05-18T20:51:11.043Z,27.98
2018-05-18T20:53:39.938Z,17.10
2018-05-18T20:56:09.068Z,26.27
2018-05-18T20:58:38.032Z,34.05
2018-05-18T21:01:06.890Z,22.08
2018-05-18T21:03:35.750Z,22.67
2018-05-18T21:06:06.457Z,30.25
2018-05-18T21:08:36.128Z,25.62
2018-05-18T21:11:06.480Z,20.33
2018-05-18T21:13:36.242Z,27.75
2018-05-18T21:16:05.330Z,25.62
2018-05-18T21:18:35.570Z,40.72
2018-05-18T21:21:06.939Z,37.30
2018-05-18T21:23:36.661Z,28.17
2018-05-18T21:26:06.625Z,27.40
2018-05-18T21:28:36.436Z,34.45
2018-05-18T21:31:05.856Z,27.83
2018-05-18T21:33:36.071Z,29.33
2018-05-18T21:36:06.586Z,34.40
2018-05-18T21:38:36.195Z,21.27
2018-05-18T21:41:06.496Z,29.10
2018-05-18T21:43:37.192Z,30.58
2018-05-18T21:46:06.343Z,38.63
2018-05-18T21:48:36.272Z,23.85
2018-05-18T21:51:04.783Z,26.55
2018-05-18T21:53:33.933Z,29.70
2018-05-18T21:56:03.418Z,34.25
2018-05-18T21:58:32.177Z,27.90
2018-05-18T22:01:01.911Z,33.40
2018-05-18T22:03:31.475Z,22.67
2018-05-18T22:06:02.136Z,25.05
2018-05-18T22:08:32.335Z,49.58
2018-05-18T22:11:01.187Z,30.58
2018-05-18T22:13:30.676Z,37.42
2018-05-18T22:16:00.169Z,25.48
2018-05-18T22:18:28.640Z,28.77
2018-05-18T22:20:57.381Z,38.55
2018-05-18T22:23:26.251Z,32.42
2018-05-18T22:25:55.221Z,25.25
2018-05-18T22:28:23.617Z,26.95
2018-05-18T22:30:52.105Z,38.28
2018-05-18T22:33:20.789Z,26.15
2018-05-18T22:35:49.679Z,34.47
2018-05-18T22:38:18.465Z,25.92
2018-05-18T22:40:47.037Z,29.00
2018-05-18T22:43:20.293Z,27.58
2018-05-18T22:45:49.324Z,28.67
2018-05-18T22:48:21.940Z,21.90
2018-05-18T22:50:50.366Z,25.88
2018-05-18T22:53:20.231Z,22.85
2018-05-18T22:55:48.614Z,23.08
2018-05-18T22:58:20.214Z,23.35
2018-05-18T23:00:49.193Z,25.67
2018-05-18T23:03:17.604Z,19.45
2018-05-18T23:05:48.356Z,39.08
2018-05-18T23:08:16.756Z,31.58
2018-05-18T23:10:56.292Z,33.13
2018-05-18T23:13:25.093Z,26.52
2018-05-18T23:15:54.235Z,27.80
2018-05-18T23:18:23.965Z,24.17
2018-05-18T23:20:53.626Z,27.05
2018-05-18T23:23:22.452Z,18.92
2018-05-18T23:25:50.922Z,22.42
2018-05-18T23:28:19.267Z,32.03
2018-05-18T23:30:50.725Z,27.67
2018-05-18T23:33:20.097Z,29.10
2018-05-18T23:35:48.475Z,28.52
2018-05-18T23:38:17.503Z,40.17
2018-05-18T23:40:47.500Z,36.05
2018-05-18T23:43:16.674Z,21.12
2018-05-18T23:45:45.049Z,23.17
2018-05-18T23:48:13.805Z,23.42
2018-05-18T23:50:42.216Z,21.45
2018-05-18T23:53:10.596Z,23.20
2018-05-18T23:55:39.049Z,25.70
2018-05-18T23:58:07.493Z,19.73
